Cherry Point Mcas /Cunningham Field/ Information

FAA: NKT - ICAO: KNKT

Cherry Point Mcas /Cunningham Field/ (Airport) Location

State North Carolina
County Pamlico
City Cherry Point
Cherry Point Mcas /Cunningham Field/ (Airport) is 2 miles northeast of Cherry Point, NC.
Latitude 34-54-11.4068N
Longitude 076-52-50.7842W
Elevation 29ft

Cherry Point Mcas /Cunningham Field/ METARs

METAR KNKT 190856Z 21013G19KT 10SM CLR 22/18 A2989 RMK AO2 SLP118 T02220183 55013
Altimeter 29.89"
Temperature 22.2°C (72.0°F)
Wind 210° at 13KT with gusts to 19KT
Clouds Skies are clear.
Visibility 10.0mi
Time observed: 2022-05-19T08:56:00Z

Cherry Point Mcas /Cunningham Field/ (Airport) Details

Status Operational
Activation June 1943
Ownership Military - Navy
Usage Private
Chart CHARLOTTE
ATC on-site Yes
Beacon schedule sunset-sunrise
Beacon color split clear green

Cherry Point Mcas /Cunningham Field/ (Airport) Contacts

Owner US NAVY
Owner address OCEANOGRAPHIC OFC-CODE 3142, WASHINGTON, DC 20373
Owner phone N/A
Manager S. ROLAND GILLIAM
Manager address 194 GILLIAM-MC CONNELL ROAD, CARTHAGE, NC 28327
Manager phone 910-695-5216

Cherry Point Mcas /Cunningham Field/ Radio Frequencies

Cherry Point Mcas /Cunningham Field/ (Airport) Radio Frequencies

UNICOM N/A
Common traffic advisory frequency (CTAF) N/A